sensor_id;sensor_type;location;lat;lon;timestamp;pressure;altitude;pressure_sealevel;temperature;humidity
36980;BME280;22891;50.562;7.272;2023-02-14T00:01:41;101781.00;;;1.65;nan
36980;BME280;22891;50.562;7.272;2023-02-14T00:04:07;101769.00;;;1.83;nan
36980;BME280;22891;50.562;7.272;2023-02-14T00:06:34;101725.00;;;1.90;nan
36980;BME280;22891;50.562;7.272;2023-02-14T00:09:01;101750.00;;;1.93;nan
36980;BME280;22891;50.562;7.272;2023-02-14T00:11:27;101744.00;;;1.95;nan
36980;BME280;22891;50.562;7.272;2023-02-14T00:13:55;101606.00;;;2.03;nan
36980;BME280;22891;50.562;7.272;2023-02-14T00:16:39;101733.00;;;2.08;nan
36980;BME280;22891;50.562;7.272;2023-02-14T00:19:05;101814.00;;;1.79;nan
36980;BME280;22891;50.562;7.272;2023-02-14T00:21:33;101820.00;;;1.83;nan
36980;BME280;22891;50.562;7.272;2023-02-14T00:24:09;101824.00;;;1.91;nan
36980;BME280;22891;50.562;7.272;2023-02-14T00:26:36;101859.00;;;1.75;nan
36980;BME280;22891;50.562;7.272;2023-02-14T00:29:06;101855.00;;;1.69;nan
36980;BME280;22891;50.562;7.272;2023-02-14T00:31:32;101836.00;;;1.70;nan
36980;BME280;22891;50.562;7.272;2023-02-14T00:33:58;101851.00;;;1.76;nan
36980;BME280;22891;50.562;7.272;2023-02-14T00:36:23;101839.00;;;1.63;nan
36980;BME280;22891;50.562;7.272;2023-02-14T00:38:49;101840.00;;;1.73;nan
36980;BME280;22891;50.562;7.272;2023-02-14T00:41:15;101842.00;;;1.55;nan
36980;BME280;22891;50.562;7.272;2023-02-14T00:43:52;101814.00;;;1.45;nan
36980;BME280;22891;50.562;7.272;2023-02-14T00:46:20;101776.00;;;1.38;nan
36980;BME280;22891;50.562;7.272;2023-02-14T00:48:46;101805.00;;;1.39;nan
36980;BME280;22891;50.562;7.272;2023-02-14T00:51:12;101812.00;;;1.47;nan
36980;BME280;22891;50.562;7.272;2023-02-14T00:53:38;101819.00;;;1.39;nan
36980;BME280;22891;50.562;7.272;2023-02-14T00:56:04;101818.00;;;1.47;nan
36980;BME280;22891;50.562;7.272;2023-02-14T00:58:30;101799.00;;;1.30;nan
36980;BME280;22891;50.562;7.272;2023-02-14T01:00:56;101795.00;;;1.34;nan
36980;BME280;22891;50.562;7.272;2023-02-14T01:03:23;101816.00;;;1.37;nan
36980;BME280;22891;50.562;7.272;2023-02-14T01:05:49;101823.00;;;1.42;nan
36980;BME280;22891;50.562;7.272;2023-02-14T01:08:15;101818.00;;;1.38;nan
36980;BME280;22891;50.562;7.272;2023-02-14T01:10:41;101809.00;;;1.45;nan
36980;BME280;22891;50.562;7.272;2023-02-14T01:13:08;101814.00;;;1.45;nan
36980;BME280;22891;50.562;7.272;2023-02-14T01:15:41;101814.00;;;1.33;nan
36980;BME280;22891;50.562;7.272;2023-02-14T01:18:07;101788.00;;;1.20;nan
36980;BME280;22891;50.562;7.272;2023-02-14T01:20:33;101789.00;;;1.18;nan
36980;BME280;22891;50.562;7.272;2023-02-14T01:22:59;101799.00;;;1.18;nan
36980;BME280;22891;50.562;7.272;2023-02-14T01:25:25;101803.00;;;1.17;nan
36980;BME280;22891;50.562;7.272;2023-02-14T01:27:50;101809.00;;;1.20;nan
36980;BME280;22891;50.562;7.272;2023-02-14T01:30:16;101807.00;;;0.92;nan
36980;BME280;22891;50.562;7.272;2023-02-14T01:32:42;101793.00;;;1.11;nan
36980;BME280;22891;50.562;7.272;2023-02-14T01:35:08;101801.00;;;1.19;nan
36980;BME280;22891;50.562;7.272;2023-02-14T01:37:34;101788.00;;;1.20;nan
36980;BME280;22891;50.562;7.272;2023-02-14T01:40:00;101798.00;;;1.17;nan
36980;BME280;22891;50.562;7.272;2023-02-14T01:42:27;101766.00;;;1.15;nan
36980;BME280;22891;50.562;7.272;2023-02-14T01:45:05;101722.00;;;1.09;nan
36980;BME280;22891;50.562;7.272;2023-02-14T01:47:37;101610.00;;;1.01;nan
36980;BME280;22891;50.562;7.272;2023-02-14T01:50:20;101872.00;;;1.03;nan
36980;BME280;22891;50.562;7.272;2023-02-14T01:52:51;101841.00;;;0.94;nan
36980;BME280;22891;50.562;7.272;2023-02-14T01:55:22;101820.00;;;0.87;nan
36980;BME280;22891;50.562;7.272;2023-02-14T01:57:53;101826.00;;;0.91;nan
36980;BME280;22891;50.562;7.272;2023-02-14T02:00:20;101832.00;;;0.82;nan
36980;BME280;22891;50.562;7.272;2023-02-14T02:03:06;101822.00;;;0.76;nan
36980;BME280;22891;50.562;7.272;2023-02-14T02:05:35;101825.00;;;0.69;nan
36980;BME280;22891;50.562;7.272;2023-02-14T02:08:02;101821.00;;;0.77;nan
36980;BME280;22891;50.562;7.272;2023-02-14T02:10:28;101826.00;;;0.87;nan
36980;BME280;22891;50.562;7.272;2023-02-14T02:12:54;101813.00;;;0.86;nan
36980;BME280;22891;50.562;7.272;2023-02-14T02:15:23;101819.00;;;0.89;nan
36980;BME280;22891;50.562;7.272;2023-02-14T02:29:04;101829.00;;;0.97;nan
36980;BME280;22891;50.562;7.272;2023-02-14T02:32:18;101818.00;;;0.70;nan
36980;BME280;22891;50.562;7.272;2023-02-14T02:45:09;101810.00;;;0.63;nan
36980;BME280;22891;50.562;7.272;2023-02-14T02:47:55;101793.00;;;0.80;nan
36980;BME280;22891;50.562;7.272;2023-02-14T02:50:37;101809.00;;;0.87;nan
36980;BME280;22891;50.562;7.272;2023-02-14T02:53:47;101795.00;;;0.79;nan
36980;BME280;22891;50.562;7.272;2023-02-14T02:56:36;101795.00;;;0.79;nan
36980;BME280;22891;50.562;7.272;2023-02-14T02:59:32;101810.00;;;0.50;nan
36980;BME280;22891;50.562;7.272;2023-02-14T03:02:21;101813.00;;;0.52;nan
36980;BME280;22891;50.562;7.272;2023-02-14T03:04:56;101803.00;;;0.56;nan
36980;BME280;22891;50.562;7.272;2023-02-14T03:07:35;101817.00;;;0.55;nan
36980;BME280;22891;50.562;7.272;2023-02-14T03:10:28;101814.00;;;0.38;nan
36980;BME280;22891;50.562;7.272;2023-02-14T03:29:07;101821.00;;;0.54;nan
36980;BME280;22891;50.562;7.272;2023-02-14T03:32:40;101817.00;;;0.48;nan
36980;BME280;22891;50.562;7.272;2023-02-14T03:35:23;101816.00;;;0.45;nan
36980;BME280;22891;50.562;7.272;2023-02-14T03:37:56;101822.00;;;0.37;nan
36980;BME280;22891;50.562;7.272;2023-02-14T03:40:41;101818.00;;;0.52;nan
36980;BME280;22891;50.562;7.272;2023-02-14T03:43:16;101818.00;;;0.63;nan
36980;BME280;22891;50.562;7.272;2023-02-14T03:46:37;101801.00;;;0.64;nan
36980;BME280;22891;50.562;7.272;2023-02-14T03:49:07;101798.00;;;0.77;nan
36980;BME280;22891;50.562;7.272;2023-02-14T03:51:35;101798.00;;;0.71;nan
36980;BME280;22891;50.562;7.272;2023-02-14T03:54:05;101786.00;;;0.82;nan
36980;BME280;22891;50.562;7.272;2023-02-14T03:56:39;101790.00;;;0.66;nan
36980;BME280;22891;50.562;7.272;2023-02-14T03:59:13;101790.00;;;0.68;nan
36980;BME280;22891;50.562;7.272;2023-02-14T04:01:54;101774.00;;;0.91;nan
36980;BME280;22891;50.562;7.272;2023-02-14T04:04:25;101758.00;;;0.98;nan
36980;BME280;22891;50.562;7.272;2023-02-14T04:06:51;101756.00;;;0.71;nan
36980;BME280;22891;50.562;7.272;2023-02-14T04:09:17;101756.00;;;0.69;nan
36980;BME280;22891;50.562;7.272;2023-02-14T04:11:43;101757.00;;;0.79;nan
36980;BME280;22891;50.562;7.272;2023-02-14T04:14:11;101749.00;;;0.88;nan
36980;BME280;22891;50.562;7.272;2023-02-14T04:16:37;101756.00;;;0.71;nan
36980;BME280;22891;50.562;7.272;2023-02-14T04:19:21;101744.00;;;0.76;nan
36980;BME280;22891;50.562;7.272;2023-02-14T04:21:50;101735.00;;;0.74;nan
36980;BME280;22891;50.562;7.272;2023-02-14T04:24:16;101734.00;;;0.61;nan
36980;BME280;22891;50.562;7.272;2023-02-14T04:26:42;101691.00;;;0.57;nan
36980;BME280;22891;50.562;7.272;2023-02-14T04:29:21;101724.00;;;0.70;nan
36980;BME280;22891;50.562;7.272;2023-02-14T04:31:47;101658.00;;;0.77;nan
36980;BME280;22891;50.562;7.272;2023-02-14T04:34:13;101725.00;;;0.74;nan
36980;BME280;22891;50.562;7.272;2023-02-14T04:36:39;101719.00;;;0.76;nan
36980;BME280;22891;50.562;7.272;2023-02-14T04:39:05;101720.00;;;0.80;nan
36980;BME280;22891;50.562;7.272;2023-02-14T04:41:31;101722.00;;;0.87;nan
36980;BME280;22891;50.562;7.272;2023-02-14T04:43:56;101726.00;;;0.85;nan
36980;BME280;22891;50.562;7.272;2023-02-14T04:46:22;101724.00;;;0.76;nan
36980;BME280;22891;50.562;7.272;2023-02-14T04:48:48;101708.00;;;0.79;nan
36980;BME280;22891;50.562;7.272;2023-02-14T04:51:13;101707.00;;;0.84;nan
36980;BME280;22891;50.562;7.272;2023-02-14T04:53:39;101700.00;;;0.86;nan
36980;BME280;22891;50.562;7.272;2023-02-14T04:56:06;101699.00;;;0.81;nan
36980;BME280;22891;50.562;7.272;2023-02-14T04:58:32;101679.00;;;1.02;nan
36980;BME280;22891;50.562;7.272;2023-02-14T05:00:58;101683.00;;;1.01;nan
36980;BME280;22891;50.562;7.272;2023-02-14T05:03:24;101678.00;;;1.00;nan
36980;BME280;22891;50.562;7.272;2023-02-14T05:05:50;101671.00;;;1.02;nan
36980;BME280;22891;50.562;7.272;2023-02-14T05:08:16;101664.00;;;1.05;nan
36980;BME280;22891;50.562;7.272;2023-02-14T05:10:41;101657.00;;;1.19;nan
36980;BME280;22891;50.562;7.272;2023-02-14T05:13:07;101652.00;;;1.25;nan
36980;BME280;22891;50.562;7.272;2023-02-14T05:15:33;101657.00;;;1.22;nan
36980;BME280;22891;50.562;7.272;2023-02-14T05:17:58;101648.00;;;1.32;nan
36980;BME280;22891;50.562;7.272;2023-02-14T05:20:30;101645.00;;;1.31;nan
36980;BME280;22891;50.562;7.272;2023-02-14T05:22:57;101641.00;;;1.25;nan
36980;BME280;22891;50.562;7.272;2023-02-14T05:25:30;101638.00;;;1.23;nan
36980;BME280;22891;50.562;7.272;2023-02-14T05:27:56;101641.00;;;1.21;nan
36980;BME280;22891;50.562;7.272;2023-02-14T05:30:22;101629.00;;;1.25;nan
36980;BME280;22891;50.562;7.272;2023-02-14T05:32:52;101623.00;;;1.27;nan
36980;BME280;22891;50.562;7.272;2023-02-14T05:35:19;101632.00;;;1.23;nan
36980;BME280;22891;50.562;7.272;2023-02-14T05:37:44;101622.00;;;1.32;nan
36980;BME280;22891;50.562;7.272;2023-02-14T05:40:10;101623.00;;;1.33;nan
36980;BME280;22891;50.562;7.272;2023-02-14T05:42:38;101613.00;;;1.42;nan
36980;BME280;22891;50.562;7.272;2023-02-14T05:45:05;101618.00;;;1.56;nan
36980;BME280;22891;50.562;7.272;2023-02-14T05:47:32;101618.00;;;1.49;nan
36980;BME280;22891;50.562;7.272;2023-02-14T05:49:57;101629.00;;;1.39;nan
36980;BME280;22891;50.562;7.272;2023-02-14T05:52:23;101630.00;;;1.40;nan
36980;BME280;22891;50.562;7.272;2023-02-14T05:54:49;101627.00;;;1.37;nan
36980;BME280;22891;50.562;7.272;2023-02-14T05:57:14;101635.00;;;1.40;nan
36980;BME280;22891;50.562;7.272;2023-02-14T05:59:40;101624.00;;;1.34;nan
36980;BME280;22891;50.562;7.272;2023-02-14T06:02:06;101628.00;;;1.20;nan
36980;BME280;22891;50.562;7.272;2023-02-14T06:04:32;101625.00;;;1.33;nan
36980;BME280;22891;50.562;7.272;2023-02-14T06:06:57;101629.00;;;1.34;nan
36980;BME280;22891;50.562;7.272;2023-02-14T06:09:23;101628.00;;;1.23;nan
36980;BME280;22891;50.562;7.272;2023-02-14T06:11:48;101624.00;;;1.34;nan
36980;BME280;22891;50.562;7.272;2023-02-14T06:14:14;101626.00;;;1.32;nan
36980;BME280;22891;50.562;7.272;2023-02-14T06:16:40;101632.00;;;1.23;nan
36980;BME280;22891;50.562;7.272;2023-02-14T06:19:06;101637.00;;;1.09;nan
36980;BME280;22891;50.562;7.272;2023-02-14T06:21:33;101639.00;;;1.15;nan
36980;BME280;22891;50.562;7.272;2023-02-14T06:23:59;101628.00;;;1.14;nan
36980;BME280;22891;50.562;7.272;2023-02-14T06:26:24;101635.00;;;1.22;nan
36980;BME280;22891;50.562;7.272;2023-02-14T06:28:56;101628.00;;;1.10;nan
36980;BME280;22891;50.562;7.272;2023-02-14T06:31:23;101626.00;;;1.19;nan
36980;BME280;22891;50.562;7.272;2023-02-14T06:33:50;101632.00;;;1.07;nan
36980;BME280;22891;50.562;7.272;2023-02-14T06:36:16;101634.00;;;1.06;nan
36980;BME280;22891;50.562;7.272;2023-02-14T06:38:42;101634.00;;;1.09;nan
36980;BME280;22891;50.562;7.272;2023-02-14T06:41:09;101627.00;;;1.18;nan
36980;BME280;22891;50.562;7.272;2023-02-14T06:43:36;101628.00;;;1.14;nan
36980;BME280;22891;50.562;7.272;2023-02-14T06:46:02;101638.00;;;1.17;nan
36980;BME280;22891;50.562;7.272;2023-02-14T06:48:28;101629.00;;;1.24;nan
36980;BME280;22891;50.562;7.272;2023-02-14T06:50:54;101638.00;;;1.17;nan
36980;BME280;22891;50.562;7.272;2023-02-14T06:53:20;101635.00;;;1.26;nan
36980;BME280;22891;50.562;7.272;2023-02-14T06:55:46;101635.00;;;1.22;nan
36980;BME280;22891;50.562;7.272;2023-02-14T06:58:11;101648.00;;;1.08;nan
36980;BME280;22891;50.562;7.272;2023-02-14T07:00:37;101643.00;;;0.83;nan
36980;BME280;22891;50.562;7.272;2023-02-14T07:03:05;101640.00;;;0.80;nan
36980;BME280;22891;50.562;7.272;2023-02-14T07:05:31;101639.00;;;0.74;nan
36980;BME280;22891;50.562;7.272;2023-02-14T07:07:57;101634.00;;;0.75;nan
36980;BME280;22891;50.562;7.272;2023-02-14T07:10:23;101640.00;;;0.91;nan
36980;BME280;22891;50.562;7.272;2023-02-14T07:12:49;101639.00;;;0.96;nan
36980;BME280;22891;50.562;7.272;2023-02-14T07:15:15;101633.00;;;1.08;nan
36980;BME280;22891;50.562;7.272;2023-02-14T07:17:40;101631.00;;;1.13;nan
36980;BME280;22891;50.562;7.272;2023-02-14T07:20:07;101633.00;;;1.23;nan
36980;BME280;22891;50.562;7.272;2023-02-14T07:22:34;101625.00;;;1.40;nan
36980;BME280;22891;50.562;7.272;2023-02-14T07:25:00;101624.00;;;1.51;nan
36980;BME280;22891;50.562;7.272;2023-02-14T07:27:26;101623.00;;;1.36;nan
36980;BME280;22891;50.562;7.272;2023-02-14T07:29:51;101622.00;;;1.35;nan
36980;BME280;22891;50.562;7.272;2023-02-14T07:32:17;101626.00;;;1.41;nan
36980;BME280;22891;50.562;7.272;2023-02-14T07:34:43;101627.00;;;1.29;nan
36980;BME280;22891;50.562;7.272;2023-02-14T07:37:09;101626.00;;;1.41;nan
36980;BME280;22891;50.562;7.272;2023-02-14T07:39:34;101622.00;;;1.45;nan
36980;BME280;22891;50.562;7.272;2023-02-14T07:42:00;101622.00;;;1.41;nan
36980;BME280;22891;50.562;7.272;2023-02-14T07:44:26;101624.00;;;1.52;nan
36980;BME280;22891;50.562;7.272;2023-02-14T07:46:51;101614.00;;;1.52;nan
36980;BME280;22891;50.562;7.272;2023-02-14T07:49:17;101620.00;;;1.56;nan
36980;BME280;22891;50.562;7.272;2023-02-14T07:51:43;101580.00;;;1.66;nan
36980;BME280;22891;50.562;7.272;2023-02-14T07:54:08;101595.00;;;1.78;nan
36980;BME280;22891;50.562;7.272;2023-02-14T07:56:34;101606.00;;;1.79;nan
36980;BME280;22891;50.562;7.272;2023-02-14T07:59:00;101582.00;;;1.89;nan
36980;BME280;22891;50.562;7.272;2023-02-14T08:01:26;101593.00;;;1.83;nan
36980;BME280;22891;50.562;7.272;2023-02-14T08:03:52;101608.00;;;1.76;nan
36980;BME280;22891;50.562;7.272;2023-02-14T08:06:18;101612.00;;;1.85;nan
36980;BME280;22891;50.562;7.272;2023-02-14T08:08:44;101595.00;;;1.90;nan
36980;BME280;22891;50.562;7.272;2023-02-14T08:11:11;101605.00;;;1.87;nan
36980;BME280;22891;50.562;7.272;2023-02-14T08:15:23;101614.00;;;1.86;nan
36980;BME280;22891;50.562;7.272;2023-02-14T08:18:07;101609.00;;;2.02;nan
36980;BME280;22891;50.562;7.272;2023-02-14T08:20:33;101602.00;;;2.13;nan
36980;BME280;22891;50.562;7.272;2023-02-14T08:22:58;101599.00;;;2.11;nan
36980;BME280;22891;50.562;7.272;2023-02-14T08:25:24;101607.00;;;2.22;nan
36980;BME280;22891;50.562;7.272;2023-02-14T08:27:50;101622.00;;;2.03;nan
36980;BME280;22891;50.562;7.272;2023-02-14T08:30:16;101626.00;;;2.15;nan
36980;BME280;22891;50.562;7.272;2023-02-14T08:32:41;101583.00;;;2.26;nan
36980;BME280;22891;50.562;7.272;2023-02-14T08:35:07;101635.00;;;2.05;nan
36980;BME280;22891;50.562;7.272;2023-02-14T08:37:33;101488.00;;;2.01;nan
36980;BME280;22891;50.562;7.272;2023-02-14T08:39:58;101435.00;;;1.96;nan
36980;BME280;22891;50.562;7.272;2023-02-14T08:42:24;101660.00;;;1.84;nan
36980;BME280;22891;50.562;7.272;2023-02-14T08:44:50;101646.00;;;1.93;nan
36980;BME280;22891;50.562;7.272;2023-02-14T08:47:16;101644.00;;;1.94;nan
36980;BME280;22891;50.562;7.272;2023-02-14T08:49:41;101644.00;;;1.94;nan
36980;BME280;22891;50.562;7.272;2023-02-14T09:33:39;101518.00;;;2.30;nan
36980;BME280;22891;50.562;7.272;2023-02-14T09:36:23;101573.00;;;2.39;nan
36980;BME280;22891;50.562;7.272;2023-02-14T09:39:07;101649.00;;;2.47;nan
36980;BME280;22891;50.562;7.272;2023-02-14T09:42:20;61241.00;;;-146.48;100.00
36980;BME280;22891;50.562;7.272;2023-02-14T09:45:21;101646.00;;;2.42;nan
36980;BME280;22891;50.562;7.272;2023-02-14T10:10:18;101804.00;;;4.57;nan
36980;BME280;22891;50.562;7.272;2023-02-14T10:44:28;102273.00;;;7.07;nan
36980;BME280;22891;50.562;7.272;2023-02-14T12:16:49;102450.00;;;8.62;nan
36980;BME280;22891;50.562;7.272;2023-02-14T12:20:01;102450.00;;;8.62;nan
36980;BME280;22891;50.562;7.272;2023-02-14T13:13:06;102458.00;;;10.41;nan
36980;BME280;22891;50.562;7.272;2023-02-14T13:16:33;102458.00;;;10.41;nan
36980;BME280;22891;50.562;7.272;2023-02-14T13:22:05;102460.00;;;9.89;nan
36980;BME280;22891;50.562;7.272;2023-02-14T13:26:42;102455.00;;;10.18;nan
36980;BME280;22891;50.562;7.272;2023-02-14T13:32:12;102455.00;;;10.18;nan
36980;BME280;22891;50.562;7.272;2023-02-14T13:38:03;102455.00;;;10.18;nan
36980;BME280;22891;50.562;7.272;2023-02-14T13:40:31;102455.00;;;10.18;nan
36980;BME280;22891;50.562;7.272;2023-02-14T13:43:00;102455.00;;;10.18;nan
36980;BME280;22891;50.562;7.272;2023-02-14T13:46:08;102455.00;;;10.18;nan
36980;BME280;22891;50.562;7.272;2023-02-14T13:48:34;102415.00;;;10.31;nan
36980;BME280;22891;50.562;7.272;2023-02-14T13:51:05;102418.00;;;10.27;nan
36980;BME280;22891;50.562;7.272;2023-02-14T13:53:47;102408.00;;;9.93;nan
36980;BME280;22891;50.562;7.272;2023-02-14T13:56:34;102370.00;;;9.79;nan
36980;BME280;22891;50.562;7.272;2023-02-14T13:59:03;102370.00;;;9.79;nan
36980;BME280;22891;50.562;7.272;2023-02-14T14:01:43;102404.00;;;9.73;nan
36980;BME280;22891;50.562;7.272;2023-02-14T14:06:10;102404.00;;;9.73;nan
36980;BME280;22891;50.562;7.272;2023-02-14T14:08:45;102394.00;;;10.34;nan
36980;BME280;22891;50.562;7.272;2023-02-14T14:18:36;102392.00;;;10.39;nan
36980;BME280;22891;50.562;7.272;2023-02-14T14:25:13;102341.00;;;9.94;nan
36980;BME280;22891;50.562;7.272;2023-02-14T14:27:44;102097.00;;;9.82;nan
36980;BME280;22891;50.562;7.272;2023-02-14T14:30:24;102347.00;;;10.27;nan
36980;BME280;22891;50.562;7.272;2023-02-14T14:32:52;102388.00;;;10.15;nan
36980;BME280;22891;50.562;7.272;2023-02-14T14:35:21;102378.00;;;9.94;nan
36980;BME280;22891;50.562;7.272;2023-02-14T14:37:56;102377.00;;;9.84;nan
36980;BME280;22891;50.562;7.272;2023-02-14T14:40:33;102377.00;;;9.68;nan
36980;BME280;22891;50.562;7.272;2023-02-14T14:43:12;102376.00;;;9.64;nan
36980;BME280;22891;50.562;7.272;2023-02-14T14:45:39;102350.00;;;9.40;nan
36980;BME280;22891;50.562;7.272;2023-02-14T14:49:27;102361.00;;;9.30;nan
36980;BME280;22891;50.562;7.272;2023-02-14T14:54:20;102055.00;;;9.45;nan
36980;BME280;22891;50.562;7.272;2023-02-14T14:56:58;102101.00;;;9.44;nan
36980;BME280;22891;50.562;7.272;2023-02-14T14:59:33;102239.00;;;9.17;nan
36980;BME280;22891;50.562;7.272;2023-02-14T15:02:03;102205.00;;;9.22;nan
36980;BME280;22891;50.562;7.272;2023-02-14T15:04:33;102126.00;;;9.06;nan
36980;BME280;22891;50.562;7.272;2023-02-14T15:07:33;102062.00;;;8.99;nan
36980;BME280;22891;50.562;7.272;2023-02-14T15:09:59;101772.00;;;8.86;nan
36980;BME280;22891;50.562;7.272;2023-02-14T15:12:26;101922.00;;;8.87;nan
36980;BME280;22891;50.562;7.272;2023-02-14T15:20:15;102194.00;;;8.87;nan
36980;BME280;22891;50.562;7.272;2023-02-14T15:22:44;102281.00;;;8.74;nan
36980;BME280;22891;50.562;7.272;2023-02-14T15:25:19;102224.00;;;8.55;nan
36980;BME280;22891;50.562;7.272;2023-02-14T15:30:30;101935.00;;;8.45;nan
36980;BME280;22891;50.562;7.272;2023-02-14T15:37:55;102251.00;;;8.36;nan
36980;BME280;22891;50.562;7.272;2023-02-14T15:40:24;102169.00;;;8.38;nan
36980;BME280;22891;50.562;7.272;2023-02-14T15:42:51;101542.00;;;8.32;nan
36980;BME280;22891;50.562;7.272;2023-02-14T15:53:23;102035.00;;;7.89;nan
36980;BME280;22891;50.562;7.272;2023-02-14T15:55:53;102105.00;;;7.91;nan
36980;BME280;22891;50.562;7.272;2023-02-14T15:58:25;101961.00;;;7.73;nan
36980;BME280;22891;50.562;7.272;2023-02-14T16:00:55;102078.00;;;7.59;nan
36980;BME280;22891;50.562;7.272;2023-02-14T16:03:23;102094.00;;;7.53;nan
36980;BME280;22891;50.562;7.272;2023-02-14T16:05:50;101924.00;;;7.48;nan
36980;BME280;22891;50.562;7.272;2023-02-14T16:11:47;101637.00;;;7.45;nan
36980;BME280;22891;50.562;7.272;2023-02-14T16:14:32;102050.00;;;7.27;nan
36980;BME280;22891;50.562;7.272;2023-02-14T16:17:12;102050.00;;;7.27;nan
36980;BME280;22891;50.562;7.272;2023-02-14T16:19:47;102166.00;;;7.09;nan
36980;BME280;22891;50.562;7.272;2023-02-14T16:22:26;102170.00;;;7.04;nan
36980;BME280;22891;50.562;7.272;2023-02-14T16:25:00;102167.00;;;6.94;nan
36980;BME280;22891;50.562;7.272;2023-02-14T16:27:26;102162.00;;;6.85;nan
36980;BME280;22891;50.562;7.272;2023-02-14T16:29:52;102145.00;;;6.78;nan
36980;BME280;22891;50.562;7.272;2023-02-14T16:32:22;102130.00;;;6.71;nan
36980;BME280;22891;50.562;7.272;2023-02-14T16:34:49;102131.00;;;6.60;nan
36980;BME280;22891;50.562;7.272;2023-02-14T16:37:21;102119.00;;;6.47;nan
36980;BME280;22891;50.562;7.272;2023-02-14T16:39:49;102111.00;;;6.49;nan
36980;BME280;22891;50.562;7.272;2023-02-14T16:42:16;102109.00;;;6.54;nan
36980;BME280;22891;50.562;7.272;2023-02-14T16:44:43;102103.00;;;6.37;nan
36980;BME280;22891;50.562;7.272;2023-02-14T16:47:14;102085.00;;;6.32;nan
36980;BME280;22891;50.562;7.272;2023-02-14T16:49:40;102071.00;;;6.19;nan
36980;BME280;22891;50.562;7.272;2023-02-14T16:55:16;102069.00;;;6.33;nan
36980;BME280;22891;50.562;7.272;2023-02-14T16:57:47;102066.00;;;6.22;nan
36980;BME280;22891;50.562;7.272;2023-02-14T17:00:15;102044.00;;;6.04;nan
36980;BME280;22891;50.562;7.272;2023-02-14T17:02:41;102055.00;;;6.00;nan
36980;BME280;22891;50.562;7.272;2023-02-14T17:05:07;102043.00;;;5.99;nan
36980;BME280;22891;50.562;7.272;2023-02-14T17:07:34;102040.00;;;5.89;nan
36980;BME280;22891;50.562;7.272;2023-02-14T17:10:08;102008.00;;;5.81;nan
36980;BME280;22891;50.562;7.272;2023-02-14T17:12:37;102007.00;;;5.65;nan
36980;BME280;22891;50.562;7.272;2023-02-14T17:15:10;102012.00;;;5.68;nan
36980;BME280;22891;50.562;7.272;2023-02-14T23:30:33;101250.00;;;0.68;nan
36980;BME280;22891;50.562;7.272;2023-02-14T23:32:59;101225.00;;;0.75;nan
36980;BME280;22891;50.562;7.272;2023-02-14T23:35:25;101216.00;;;0.66;nan
36980;BME280;22891;50.562;7.272;2023-02-14T23:37:50;101217.00;;;0.55;nan
36980;BME280;22891;50.562;7.272;2023-02-14T23:40:16;101222.00;;;0.54;nan
36980;BME280;22891;50.562;7.272;2023-02-14T23:42:42;101222.00;;;0.54;nan
36980;BME280;22891;50.562;7.272;2023-02-14T23:47:52;101210.00;;;0.65;nan
36980;BME280;22891;50.562;7.272;2023-02-14T23:50:17;101197.00;;;0.85;nan
36980;BME280;22891;50.562;7.272;2023-02-14T23:52:43;101187.00;;;0.83;nan
36980;BME280;22891;50.562;7.272;2023-02-14T23:55:10;101201.00;;;0.79;nan
36980;BME280;22891;50.562;7.272;2023-02-14T23:57:36;101194.00;;;0.73;nan
